CheckWX is a tool to help pilots better visualize weather data.  It is not intended as a substitute for an official pre-flight weather briefing.

02:32:20 UTC

KPSC METAR
Tri-Cities Airport
Pasco, Washington, USA
Current

39 mins ago

KPSC 230153Z 24012KT 10SM SCT100 17/02 A2991 RMK AO2 SLP127 T01720022
Observed
Mar-23 @ 01:53 UTC
Wind
  • 240° at 12 KTS
Visibility
10 SM
Flight Rules
VFR
Cloud Levels
  • Scattered at 10,000' AGL
Temperature
17°C / 63°F
Dewpoint
C / 36°F
Humidity
37%
Altimeter
29.91" Hg
Pressure
1012.7 hPa
Previous

2 hours ago

KPSC 230053Z 24015KT 10SM CLR 20/00 A2989 RMK AO2 SLP119 T02000000
Observed
Mar-23 @ 00:53 UTC
Wind
  • 240° at 15 KTS
Visibility
10 SM
Flight Rules
VFR
Cloud Levels
  • Clear skies
Temperature
20°C / 68°F
Dewpoint
C / 32°F
Humidity
26%
Altimeter
29.89" Hg
Pressure
1011.9 hPa
Previous

3 hours ago

KPSC 222353Z 23014KT 10SM CLR 21/01 A2987 RMK AO2 SLP114 T02110006 10217 20150 58005
Observed
Mar-22 @ 23:53 UTC
Wind
  • 230° at 14 KTS
Visibility
10 SM
Flight Rules
VFR
Cloud Levels
  • Clear skies
Temperature
21°C / 70°F
Dewpoint
C / 34°F
Humidity
27%
Altimeter
29.87" Hg
Pressure
1011.4 hPa